Terminal Aerodrome Forecast
Issued by NWS

Home | Current Version | Previous Version | Text Only | Print | Product List | Glossary On
Versions: 1 2 3 4 5 6 7 8 9 10 11 12 13 14 15 16 17 18 19 20
000
FTUS46 KLOX 032300 RRA
TAFPRB
TAF
KPRB 032350Z 0400/0424 22012G20KT P6SM SKC
     FM040200 22010KT P6SM SKC
     FM040400 21006KT P6SM SCT010
     FM040700 VRB03KT P6SM BKN010
     FM041000 VRB03KT 6SM BR OVC006
     FM041700 25005KT P6SM BKN010
     FM041900 21012KT P6SM SKC
     FM042100 21014G22KT P6SM SKC=

USA.gov is the U.S. government's official web portal to all federal, state and local government web resources and services.